Time;durP1;ratioP1;P1;durP2;ratioP2;P2;SDS_P1;SDS_P2;PMS_P1;PMS_P2;Temp;Humidity;BMP_temperature;BMP_pressure;BME280_temperature;BME280_humidity;BME280_pressure;Samples;Min_cycle;Max_cycle;Signal;HPM_P1;HPM_P2
2022/05/08 00:00:45;;;;;;;0.10;0.10;;;11.70;99.90;226.50;231333.00;;;;5055508;28;20202;-69
2022/05/08 00:03:15;;;;;;;0.10;0.10;;;11.60;99.90;226.50;231333.00;;;;5055395;28;20194;-69
2022/05/08 00:05:43;;;;;;;0.10;0.10;;;11.50;99.90;226.50;231333.00;;;;5055065;28;20332;-69
2022/05/08 00:08:14;;;;;;;0.10;0.10;;;11.60;99.90;10.60;94306.00;;;;5058405;28;20198;-68
2022/05/08 00:10:42;;;;;;;0.10;0.10;;;11.60;99.90;10.70;97823.00;;;;5053811;28;20242;-69
2022/05/08 00:13:10;;;;;;;0.00;0.00;;;11.60;99.90;10.70;97730.00;;;;5053781;28;20186;-69
2022/05/08 00:15:38;;;;;;;0.10;0.10;;;11.60;99.90;10.70;97761.00;;;;5053006;28;20214;-69
2022/05/08 00:18:07;;;;;;;0.10;0.10;;;11.70;99.90;10.70;97813.00;;;;5052600;28;20194;-69
2022/05/08 00:20:37;;;;;;;0.10;0.10;;;11.70;99.90;10.70;97810.00;;;;5053087;28;20672;-69
2022/05/08 00:23:06;;;;;;;0.10;0.10;;;11.70;99.90;10.80;97822.00;;;;5038106;28;20191;-68
2022/05/08 00:25:34;;;;;;;0.00;0.00;;;11.70;99.90;10.60;97825.00;;;;5051456;28;20252;-68
2022/05/08 00:28:02;;;;;;;0.10;0.10;;;11.70;99.90;10.90;97802.00;;;;5053181;28;20186;-68
2022/05/08 00:30:30;;;;;;;0.10;0.10;;;11.90;99.90;10.80;97804.00;;;;5052383;28;20195;-69
2022/05/08 00:32:59;;;;;;;0.10;0.10;;;11.80;99.90;10.90;97805.00;;;;5046900;28;20252;-70
2022/05/08 00:35:27;;;;;;;0.10;0.10;;;11.90;99.90;10.70;97810.00;;;;5052532;28;20222;-69
2022/05/08 00:37:57;;;;;;;0.10;0.10;;;11.90;99.90;10.80;97802.00;;;;5052663;28;20599;-69
2022/05/08 00:40:25;;;;;;;0.10;0.10;;;11.80;99.90;10.80;97807.00;;;;5045577;28;20205;-68
2022/05/08 00:42:54;;;;;;;0.10;0.10;;;11.80;99.90;10.80;97809.00;;;;5052603;28;20191;-69
2022/05/08 00:45:22;;;;;;;0.10;0.10;;;11.80;99.90;10.90;97810.00;;;;5067970;28;20272;-69
2022/05/08 00:47:50;;;;;;;0.10;0.10;;;11.80;99.90;10.80;97809.00;;;;5047123;28;20198;-69
2022/05/08 00:50:18;;;;;;;0.10;0.10;;;11.90;99.90;10.80;97815.00;;;;5051955;28;20198;-69
2022/05/08 00:52:46;;;;;;;0.10;0.10;;;11.80;99.90;11.00;97807.00;;;;5052432;28;20610;-69
2022/05/08 00:55:15;;;;;;;0.10;0.10;;;11.90;99.90;11.20;97809.00;;;;5052554;28;20215;-69
2022/05/08 00:57:44;;;;;;;0.10;0.10;;;12.00;99.90;11.20;97813.00;;;;5045153;28;20233;-69
2022/05/08 01:00:14;;;;;;;0.10;0.10;;;12.10;99.90;11.30;97808.00;;;;5042665;28;20690;-70
2022/05/08 01:02:42;;;;;;;0.00;0.00;;;12.20;99.90;11.30;97828.00;;;;5051471;28;20194;-69
2022/05/08 01:05:11;;;;;;;0.10;0.10;;;12.20;99.90;11.20;97823.00;;;;5052293;28;20210;-70
2022/05/08 01:07:39;;;;;;;0.10;0.10;;;12.10;99.90;11.20;97816.00;;;;5050583;28;20222;-70
2022/05/08 01:10:09;;;;;;;0.00;0.00;;;12.10;99.90;11.30;97812.00;;;;5052143;28;20194;-69
2022/05/08 01:12:44;;;;;;;0.10;0.10;;;12.20;99.90;11.50;97813.00;;;;5051459;28;20239;-70
2022/05/08 01:15:15;;;;;;;0.10;0.10;;;12.40;99.90;11.60;97815.00;;;;5051789;28;20228;-69
2022/05/08 01:17:43;;;;;;;0.10;0.10;;;12.50;99.90;11.50;97820.00;;;;5051790;28;20638;-69
2022/05/08 01:20:13;;;;;;;0.10;0.10;;;12.50;99.90;11.50;97775.00;;;;5048008;28;20234;-68
2022/05/08 01:22:42;;;;;;;0.00;0.00;;;12.40;99.90;11.20;97816.00;;;;5054981;28;20550;-69
2022/05/08 01:25:13;;;;;;;0.08;0.08;;;12.30;99.90;11.10;97816.00;;;;5056583;28;20218;-69
2022/05/08 01:27:41;;;;;;;0.10;0.10;;;12.10;99.90;11.10;97833.00;;;;5053590;28;20213;-69
2022/05/08 01:30:10;;;;;;;0.10;0.10;;;12.00;99.90;11.00;97807.00;;;;5051747;28;20209;-69
2022/05/08 01:32:38;;;;;;;0.00;0.00;;;11.90;99.90;10.80;97808.00;;;;5048382;28;20218;-68
2022/05/08 01:35:07;;;;;;;0.10;0.10;;;11.70;99.90;10.60;97806.00;;;;5049091;28;20218;-68
2022/05/08 01:37:35;;;;;;;0.10;0.10;;;11.50;99.90;10.40;97806.00;;;;5051133;28;20210;-69
2022/05/08 01:40:07;;;;;;;0.10;0.10;;;11.30;99.90;10.20;97803.00;;;;5049331;28;20195;-68
2022/05/08 01:42:35;;;;;;;0.10;0.10;;;11.10;99.90;10.20;97800.00;;;;5051429;28;20671;-68
2022/05/08 01:45:03;;;;;;;0.10;0.10;;;11.00;99.90;10.20;97802.00;;;;5050518;28;20287;-69
2022/05/08 01:50:17;;;;;;;0.00;0.00;;;11.10;99.90;10.30;97806.00;;;;5051375;28;20218;-69
2022/05/08 01:52:45;;;;;;;0.10;0.10;;;11.20;99.90;10.30;97801.00;;;;5050802;28;20191;-69
2022/05/08 01:55:14;;;;;;;0.10;0.10;;;11.20;99.90;10.30;97815.00;;;;5044648;28;20223;-70
2022/05/08 01:57:42;;;;;;;0.10;0.10;;;11.30;99.90;10.30;97808.00;;;;5051203;28;20218;-69
2022/05/08 02:00:11;;;;;;;0.10;0.10;;;11.20;99.90;10.30;97806.00;;;;5053041;28;20667;-69
2022/05/08 02:02:43;;;;;;;0.08;0.08;;;11.20;99.90;10.30;97808.00;;;;5054313;28;20186;-69
2022/05/08 02:05:11;;;;;;;0.10;0.10;;;11.20;99.90;10.30;97810.00;;;;5051087;28;20253;-68
2022/05/08 02:07:39;;;;;;;0.03;0.03;;;11.30;99.90;10.30;97813.00;;;;5050705;28;20186;-67
2022/05/08 02:10:08;;;;;;;0.10;0.10;;;11.30;99.90;10.30;97814.00;;;;5050740;28;20201;-66
2022/05/08 02:12:41;;;;;;;0.10;0.10;;;11.30;99.90;10.30;97813.00;;;;5031807;28;20203;-68
2022/05/08 02:15:12;;;;;;;0.10;0.10;;;11.30;99.90;10.30;97804.00;;;;5047749;28;20222;-67
2022/05/08 02:17:41;;;;;;;0.10;0.10;;;11.30;99.90;10.30;97808.00;;;;5048179;28;20214;-68
2022/05/08 02:20:11;;;;;;;0.10;0.10;;;11.30;99.90;10.30;97813.00;;;;5049974;28;20210;-67
2022/05/08 02:22:39;;;;;;;0.08;0.08;;;11.30;99.90;10.30;97812.00;;;;5055141;28;20186;-68
2022/05/08 02:25:09;;;;;;;0.10;0.10;;;11.30;99.90;10.20;97804.00;;;;5054974;28;20229;-68
2022/05/08 02:27:41;;;;;;;0.10;0.10;;;11.10;99.90;9.90;97799.00;;;;5055077;28;20263;-67
2022/05/08 02:30:12;;;;;;;0.10;0.10;;;10.80;99.90;9.90;97805.00;;;;5052714;28;20206;-68
2022/05/08 02:32:40;;;;;;;0.10;0.10;;;10.80;99.90;9.80;97803.00;;;;5055630;28;20598;-67
2022/05/08 02:35:10;;;;;;;0.10;0.10;;;10.70;99.90;9.70;97800.00;;;;5053375;28;20268;-67
2022/05/08 02:37:39;;;;;;;0.00;0.00;;;10.60;99.90;9.60;97804.00;;;;5053007;28;20214;-69
2022/05/08 02:40:09;;;;;;;0.10;0.10;;;10.50;99.90;9.70;97808.00;;;;5054698;28;20225;-69
2022/05/08 02:42:40;;;;;;;0.00;0.00;;;10.70;99.90;9.60;97798.00;;;;5045609;28;20703;-68
2022/05/08 02:45:09;;;;;;;0.10;0.10;;;10.70;99.90;9.70;97812.00;;;;5053915;28;20633;-68
2022/05/08 02:47:40;;;;;;;0.10;0.10;;;10.70;99.90;9.70;97810.00;;;;5054622;28;20182;-68
2022/05/08 02:50:11;;;;;;;0.10;0.10;;;10.80;99.90;9.70;97804.00;;;;5054545;28;20267;-69
2022/05/08 02:52:40;;;;;;;0.10;0.10;;;10.70;99.90;9.60;97804.00;;;;5054216;28;20203;-68
2022/05/08 03:00:45;;;;;;;0.10;0.10;;;10.50;99.90;9.60;97806.00;;;;5054289;28;20186;-68
2022/05/08 03:03:15;;;;;;;0.10;0.10;;;10.70;99.90;9.70;97807.00;;;;5045496;28;20715;-69
2022/05/08 03:05:45;;;;;;;0.10;0.10;;;10.80;99.90;9.70;97809.00;;;;5054145;28;20210;-67
2022/05/08 03:08:15;;;;;;;0.10;0.10;;;10.80;99.90;9.80;97817.00;;;;5053345;28;20241;-68
2022/05/08 03:13:33;;;;;;;0.10;0.10;;;10.90;99.90;9.70;97820.00;;;;5053799;28;20534;-69
2022/05/08 03:16:01;;;;;;;0.10;0.10;;;10.80;99.90;9.70;97825.00;;;;5054256;28;20746;-69
2022/05/08 03:18:29;;;;;;;0.10;0.10;;;10.80;99.90;9.60;97821.00;;;;5054134;28;20218;-69
2022/05/08 03:20:58;;;;;;;0.10;0.10;;;10.60;99.90;9.60;97838.00;;;;5053946;28;20202;-69
2022/05/08 03:23:25;;;;;;;0.10;0.10;;;10.60;99.90;9.50;97837.00;;;;5049462;28;20194;-68
2022/05/08 03:25:54;;;;;;;0.10;0.10;;;10.50;99.90;9.60;97832.00;;;;5054303;28;20245;-69
2022/05/08 03:28:22;;;;;;;0.10;0.10;;;10.60;99.90;9.50;97822.00;;;;5054411;28;20194;-69
2022/05/08 03:30:51;;;;;;;0.10;0.10;;;10.50;99.90;9.40;97832.00;;;;5052840;28;20221;-69
2022/05/08 03:33:19;;;;;;;0.10;0.10;;;10.40;99.90;9.40;97837.00;;;;5054378;28;20198;-69
2022/05/08 03:35:47;;;;;;;0.00;0.00;;;10.50;99.90;9.40;97844.00;;;;5068348;28;20267;-69
2022/05/08 03:38:17;;;;;;;0.10;0.10;;;10.50;99.90;9.40;97835.00;;;;5053054;28;20237;-68
2022/05/08 03:40:46;;;;;;;0.10;0.10;;;10.50;99.90;9.30;97838.00;;;;5053538;28;20190;-69
2022/05/08 03:43:14;;;;;;;0.10;0.10;;;10.20;99.90;9.10;97833.00;;;;5049922;28;20197;-69
2022/05/08 03:45:43;;;;;;;0.10;0.10;;;10.10;99.90;9.00;97829.00;;;;5053318;28;20268;-69
2022/05/08 03:48:12;;;;;;;0.10;0.10;;;10.10;99.90;9.10;97838.00;;;;5053728;28;20253;-69
2022/05/08 03:50:40;;;;;;;0.10;0.10;;;10.10;99.90;9.10;97841.00;;;;5053269;28;20247;-68
2022/05/08 03:53:09;;;;;;;0.10;0.10;;;10.10;99.90;9.10;97842.00;;;;5051891;28;20603;-70
2022/05/08 03:55:37;;;;;;;0.10;0.10;;;10.10;99.90;9.20;97846.00;;;;5052714;28;20214;-69
2022/05/08 03:58:05;;;;;;;0.10;0.10;;;10.10;99.90;9.20;97789.00;;;;5053681;28;20222;-70
2022/05/08 04:00:33;;;;;;;0.10;0.10;;;10.20;99.90;9.10;97854.00;;;;5051507;28;20213;-70
2022/05/08 04:03:01;;;;;;;0.10;0.10;;;10.10;99.90;9.20;97853.00;;;;5042312;28;20563;-71
2022/05/08 04:05:31;;;;;;;0.10;0.10;;;10.10;99.90;9.20;97861.00;;;;5052496;28;20242;-70
2022/05/08 04:07:59;;;;;;;0.10;0.10;;;10.20;99.90;9.30;97854.00;;;;5053154;28;20730;-70
2022/05/08 04:10:27;;;;;;;0.10;0.10;;;10.20;99.90;9.30;97860.00;;;;5053288;28;20205;-70
2022/05/08 04:12:55;;;;;;;0.10;0.10;;;10.30;99.90;9.30;97847.00;;;;5053048;28;20670;-70
2022/05/08 04:18:09;;;;;;;0.10;0.10;;;10.20;99.90;9.30;97854.00;;;;5051242;28;20281;-71
2022/05/08 04:20:38;;;;;;;0.10;0.10;;;10.20;99.90;9.30;97864.00;;;;5042438;28;20191;-70
2022/05/08 04:25:52;;;;;;;0.10;0.10;;;10.30;99.90;9.40;97864.00;;;;5048209;28;20210;-70
2022/05/08 04:28:21;;;;;;;0.10;0.10;;;10.30;99.90;9.30;97874.00;;;;5052886;28;20572;-70
2022/05/08 04:30:50;;;;;;;0.10;0.10;;;10.20;99.90;9.20;97849.00;;;;5052596;28;20664;-71
2022/05/08 04:33:22;;;;;;;0.10;0.10;;;10.10;99.90;9.10;97824.00;;;;5052084;28;20241;-70
2022/05/08 04:35:51;;;;;;;0.10;0.10;;;10.10;99.90;9.20;97843.00;;;;5052360;28;20221;-70
2022/05/08 04:38:19;;;;;;;0.10;0.10;;;10.10;99.90;9.20;97870.00;;;;5052576;28;20210;-69
2022/05/08 04:40:47;;;;;;;0.10;0.10;;;10.20;99.90;9.30;97877.00;;;;5052499;28;20194;-69
2022/05/08 04:43:15;;;;;;;0.10;0.10;;;10.30;99.90;9.40;97875.00;;;;5051385;28;20273;-69
2022/05/08 04:45:43;;;;;;;0.10;0.10;;;10.40;99.90;9.40;97873.00;;;;5052316;28;20746;-69
2022/05/08 04:48:11;;;;;;;0.10;0.10;;;10.30;99.90;9.40;97879.00;;;;5045283;28;20199;-69
2022/05/08 04:50:40;;;;;;;0.10;0.10;;;10.40;99.90;9.50;97853.00;;;;5050876;28;20252;-69
2022/05/08 04:53:09;;;;;;;0.10;0.10;;;10.50;99.90;9.50;97890.00;;;;5039675;28;20195;-68
2022/05/08 04:55:37;;;;;;;0.10;0.10;;;10.50;99.90;9.60;97871.00;;;;5052037;28;20605;-68
2022/05/08 04:58:06;;;;;;;0.10;0.10;;;10.50;99.90;9.60;97876.00;;;;5052444;28;20198;-69
2022/05/08 05:00:34;;;;;;;0.10;0.10;;;10.60;99.90;9.70;97897.00;;;;5044667;28;20194;-69
2022/05/08 05:03:02;;;;;;;0.10;0.10;;;10.60;99.90;9.70;97890.00;;;;5050121;28;20688;-69
2022/05/08 05:05:30;;;;;;;0.10;0.10;;;10.60;99.90;9.70;97891.00;;;;5047605;28;20303;-69
2022/05/08 05:07:58;;;;;;;0.10;0.10;;;10.70;99.90;9.80;97895.00;;;;5045216;28;20202;-69
2022/05/08 05:10:27;;;;;;;0.10;0.10;;;10.70;99.90;9.90;97903.00;;;;5050587;28;20244;-69
2022/05/08 05:12:55;;;;;;;0.10;0.10;;;10.80;99.90;9.90;97897.00;;;;5052448;28;20656;-69
2022/05/08 05:15:24;;;;;;;0.10;0.10;;;10.80;99.90;10.00;97897.00;;;;5052410;28;20222;-68
2022/05/08 05:17:52;;;;;;;0.10;0.10;;;10.90;99.90;10.00;97903.00;;;;5052160;28;20186;-69
2022/05/08 05:20:21;;;;;;;0.10;0.10;;;10.90;99.90;10.10;97904.00;;;;5049581;28;20226;-69
2022/05/08 05:22:49;;;;;;;0.10;0.10;;;11.00;99.90;10.20;97900.00;;;;5046940;28;20183;-69
2022/05/08 05:25:17;;;;;;;0.10;0.10;;;11.10;99.90;10.30;97917.00;;;;5049664;28;20210;-68
2022/05/08 05:27:47;;;;;;;0.10;0.10;;;11.20;99.90;10.20;97898.00;;;;5045335;28;20210;-68
2022/05/08 05:30:16;;;;;;;0.10;0.10;;;11.10;99.90;10.30;97906.00;;;;5051552;28;20202;-69
2022/05/08 05:32:44;;;;;;;0.10;0.10;;;11.20;99.90;10.30;97909.00;;;;5052029;28;20183;-69
2022/05/08 05:35:12;;;;;;;0.10;0.10;;;11.20;99.90;10.40;97914.00;;;;5053803;28;20214;-69
2022/05/08 05:37:40;;;;;;;0.10;0.10;;;11.40;99.90;10.50;97910.00;;;;5050292;28;20195;-69
2022/05/08 05:40:09;;;;;;;0.10;0.10;;;11.40;99.90;10.60;97925.00;;;;5047214;28;20275;-68
2022/05/08 05:42:39;;;;;;;0.10;0.10;;;11.60;99.90;10.70;97925.00;;;;5045705;28;20203;-70
2022/05/08 05:45:10;;;;;;;0.10;0.10;;;11.60;99.90;10.80;97920.00;;;;5041664;28;20222;-70
2022/05/08 05:47:49;;;;;;;0.10;0.10;;;11.70;99.90;10.90;97911.00;;;;5051353;28;20198;-69
2022/05/08 05:50:18;;;;;;;0.08;0.08;;;11.70;99.90;11.00;97909.00;;;;5050605;28;20587;-69
2022/05/08 05:52:46;;;;;;;0.10;0.10;;;11.80;99.90;11.10;97914.00;;;;5067060;28;20186;-69
2022/05/08 05:55:14;;;;;;;0.10;0.10;;;11.90;99.90;11.20;97919.00;;;;5050758;28;20297;-70
2022/05/08 05:57:43;;;;;;;0.10;0.10;;;12.00;99.90;11.30;97927.00;;;;5043705;28;20183;-69
2022/05/08 06:00:16;;;;;;;0.10;0.10;;;12.20;99.90;11.40;97920.00;;;;5039160;28;20214;-69
2022/05/08 06:02:46;;;;;;;0.10;0.10;;;12.20;99.90;11.50;97889.00;;;;5046996;28;20256;-68
2022/05/08 06:05:15;;;;;;;0.00;0.00;;;12.40;99.90;11.80;97913.00;;;;5051200;28;20241;-69
2022/05/08 06:07:45;;;;;;;0.00;0.00;;;12.60;99.90;11.90;97938.00;;;;5050975;28;20198;-70
2022/05/08 06:10:14;;;;;;;0.08;0.08;;;12.70;99.90;12.10;97936.00;;;;5050995;28;20198;-70
2022/05/08 06:12:42;;;;;;;0.10;0.10;;;12.90;99.90;12.30;97938.00;;;;5048918;28;20309;-69
2022/05/08 06:15:12;;;;;;;0.10;0.10;;;13.10;99.90;12.30;97943.00;;;;5047699;28;20724;-69
2022/05/08 06:17:40;;;;;;;0.10;0.10;;;13.10;99.90;12.50;97946.00;;;;5051107;28;20198;-69
2022/05/08 06:20:10;;;;;;;0.10;0.10;;;13.20;99.90;12.50;97945.00;;;;5051222;28;20317;-69
2022/05/08 06:22:40;;;;;;;0.10;0.10;;;13.30;99.90;12.50;97940.00;;;;5045258;28;20190;-69
2022/05/08 06:25:09;;;;;;;0.10;0.10;;;13.30;99.90;12.40;97945.00;;;;5051121;28;20703;-70
2022/05/08 06:27:37;;;;;;;0.10;0.10;;;13.30;99.90;12.50;97943.00;;;;5046588;28;20593;-69
2022/05/08 06:30:07;;;;;;;0.10;0.10;;;13.30;99.90;12.50;97954.00;;;;5045457;28;20206;-69
2022/05/08 06:32:36;;;;;;;0.00;0.00;;;13.30;99.90;12.60;97947.00;;;;5050521;28;20682;-68
2022/05/08 06:35:24;;;;;;;0.10;0.10;;;13.40;99.90;12.50;97950.00;;;;5046926;28;20276;-69
2022/05/08 06:37:54;;;;;;;0.10;0.10;;;13.40;99.90;12.60;97954.00;;;;5040113;28;20186;-69
2022/05/08 06:40:22;;;;;;;0.10;0.10;;;13.40;99.90;12.60;97949.00;;;;5047914;28;20240;-69
2022/05/08 06:42:50;;;;;;;0.10;0.10;;;13.40;99.90;12.70;97981.00;;;;5046866;28;20203;-69
2022/05/08 06:45:23;;;;;;;0.10;0.10;;;13.50;99.90;12.70;97957.00;;;;5049427;28;20222;-70
2022/05/08 06:47:53;;;;;;;0.10;0.10;;;13.50;99.90;12.80;97957.00;;;;5050598;28;20631;-69
2022/05/08 06:50:21;;;;;;;0.00;0.00;;;13.50;99.90;12.80;97962.00;;;;5050540;28;20217;-70
2022/05/08 06:52:49;;;;;;;0.10;0.10;;;13.60;99.90;12.70;97958.00;;;;5049658;28;20191;-69
2022/05/08 06:55:19;;;;;;;0.05;0.05;;;13.50;99.90;12.80;97964.00;;;;5050635;28;20704;-69
2022/05/08 06:57:47;;;;;;;0.10;0.10;;;13.60;99.90;12.80;97987.00;;;;5050699;28;20209;-69
2022/05/08 07:03:05;;;;;;;0.08;0.08;;;13.60;99.90;12.90;97986.00;;;;5049748;28;20194;-69
2022/05/08 07:05:36;;;;;;;0.00;0.00;;;13.60;99.90;12.90;97987.00;;;;5044875;28;20232;-69
2022/05/08 07:08:05;;;;;;;0.10;0.10;;;13.70;99.90;12.90;97993.00;;;;5034942;28;20657;-69
2022/05/08 07:10:33;;;;;;;0.10;0.10;;;13.70;99.90;13.00;97996.00;;;;5056539;28;20252;-69
2022/05/08 07:13:01;;;;;;;0.10;0.10;;;13.80;99.90;13.00;98000.00;;;;5064634;28;20221;-69
2022/05/08 07:15:29;;;;;;;0.10;0.10;;;13.80;99.90;13.00;97998.00;;;;5060528;28;20275;-67
2022/05/08 07:18:19;;;;;;;0.10;0.10;;;13.80;99.90;13.10;98005.00;;;;5061152;28;20256;-69
2022/05/08 07:20:47;;;;;;;0.00;0.00;;;13.90;99.90;13.20;98010.00;;;;5057010;28;20211;-69
2022/05/08 07:23:15;;;;;;;0.03;0.03;;;13.90;99.90;13.10;98004.00;;;;5058087;28;20213;-68
2022/05/08 07:25:45;;;;;;;0.08;0.08;;;13.90;99.90;13.10;98009.00;;;;5058178;28;20218;-68
2022/05/08 07:28:12;;;;;;;0.10;0.10;;;13.90;99.90;13.10;98010.00;;;;5059599;28;20195;-69
2022/05/08 07:30:42;;;;;;;0.10;0.10;;;13.90;99.90;13.10;98003.00;;;;5058966;28;20226;-72
2022/05/08 07:33:10;;;;;;;0.10;0.10;;;13.90;99.90;13.20;98010.00;;;;5057495;28;20244;-69
2022/05/08 07:38:28;;;;;;;0.10;0.10;;;13.90;99.90;13.20;98013.00;;;;5047604;28;20194;-69
2022/05/08 07:41:01;;;;;;;0.10;0.10;;;14.00;99.90;13.20;98013.00;;;;5053786;28;20305;-69
2022/05/08 07:43:29;;;;;;;0.10;0.10;;;14.00;99.90;13.30;98017.00;;;;5053839;28;20195;-69
2022/05/08 07:45:58;;;;;;;0.10;0.10;;;14.00;99.90;13.20;98003.00;;;;5050719;28;20225;-69
2022/05/08 07:48:26;;;;;;;0.08;0.08;;;14.00;99.90;13.30;98016.00;;;;5059827;28;20607;-68
2022/05/08 07:50:57;;;;;;;0.10;0.10;;;14.00;99.90;13.40;98016.00;;;;5055306;28;20210;-69
2022/05/08 07:53:26;;;;;;;0.10;0.10;;;14.10;99.90;13.40;98032.00;;;;5052631;28;20194;-69
2022/05/08 07:55:54;;;;;;;0.10;0.10;;;14.20;99.90;13.50;98016.00;;;;5050927;28;20601;-68
2022/05/08 07:58:23;;;;;;;0.10;0.10;;;14.20;99.90;13.50;98027.00;;;;5044695;28;20256;-69
2022/05/08 08:00:53;;;;;;;0.10;0.10;;;14.30;99.90;13.50;98032.00;;;;5049515;28;20218;-69
2022/05/08 08:03:23;;;;;;;0.10;0.10;;;14.30;99.90;13.60;98025.00;;;;5052326;28;20191;-67
2022/05/08 08:05:51;;;;;;;0.10;0.10;;;14.30;99.90;13.60;98040.00;;;;5049987;28;20305;-69
2022/05/08 08:08:39;;;;;;;0.00;0.00;;;14.30;99.90;13.70;98034.00;;;;5054367;28;20201;-70
2022/05/08 08:11:10;;;;;;;0.10;0.10;;;14.40;99.90;13.70;97996.00;;;;5056242;28;20288;-70
2022/05/08 08:13:40;;;;;;;0.10;0.10;;;14.40;99.90;13.60;97983.00;;;;5040385;28;20202;-70
2022/05/08 08:16:09;;;;;;;0.10;0.10;;;14.40;99.90;13.60;98042.00;;;;5041548;28;20632;-69
2022/05/08 08:18:42;;;;;;;0.00;0.00;;;14.30;99.90;13.70;98033.00;;;;5055323;28;20203;-70
2022/05/08 08:21:12;;;;;;;0.10;0.10;;;14.40;99.90;13.70;98061.00;;;;5062790;28;20225;-69
2022/05/08 08:23:44;;;;;;;0.10;0.10;;;14.50;99.90;13.70;98055.00;;;;5071820;28;20564;-70
2022/05/08 08:26:14;;;;;;;0.00;0.00;;;14.40;99.90;13.60;98017.00;;;;5047593;28;20273;-70
2022/05/08 08:28:42;;;;;;;0.10;0.10;;;14.40;99.90;13.70;98045.00;;;;5033734;28;20245;-70
2022/05/08 08:31:12;;;;;;;0.10;0.10;;;14.40;99.90;13.70;98055.00;;;;5056550;28;20249;-70
2022/05/08 08:33:42;;;;;;;0.00;0.00;;;14.50;99.90;13.70;98054.00;;;;5051166;28;20565;-73
2022/05/08 08:36:11;;;;;;;0.00;0.00;;;14.50;99.90;13.70;98058.00;;;;5058227;28;20639;-70
2022/05/08 08:38:40;;;;;;;0.00;0.00;;;14.50;99.90;13.80;98055.00;;;;5074006;28;20592;-69
2022/05/08 08:41:09;;;;;;;0.00;0.00;;;14.50;99.90;13.80;98051.00;;;;5057291;28;20241;-70
2022/05/08 08:49:20;;;;;;;0.08;0.08;;;14.60;99.90;13.90;98061.00;;;;5050869;28;20198;-68
2022/05/08 08:51:49;;;;;;;0.10;0.10;;;14.70;99.90;14.00;98067.00;;;;5055491;28;20256;-69
2022/05/08 08:54:20;;;;;;;0.10;0.10;;;14.70;99.90;13.90;98066.00;;;;5065466;28;20600;-70
2022/05/08 08:56:50;;;;;;;0.00;0.00;;;14.70;99.90;13.90;98079.00;;;;5047308;28;20201;-70
2022/05/08 08:59:27;;;;;;;0.10;0.10;;;14.70;99.90;13.90;98068.00;;;;5052736;28;20186;-69
2022/05/08 09:01:56;;;;;;;0.00;0.00;;;14.70;90.70;14.10;98049.00;;;;5052967;28;20222;-69
2022/05/08 09:04:25;;;;;;;0.10;0.10;;;14.80;85.80;14.10;98073.00;;;;5055288;28;20222;-69
2022/05/08 09:06:53;;;;;;;0.03;0.03;;;14.80;4.10;14.10;98068.00;;;;5055630;28;20260;-69
2022/05/08 09:09:27;;;;;;;0.10;0.10;;;14.80;1.00;14.20;98074.00;;;;5057314;28;20572;-69
2022/05/08 09:11:58;;;;;;;0.10;0.10;;;14.80;1.00;14.00;98071.00;;;;5054016;28;20205;-70
2022/05/08 09:14:32;;;;;;;0.00;0.00;;;14.80;1.00;14.10;98074.00;;;;5068453;28;20205;-70
2022/05/08 09:17:01;;;;;;;0.10;0.10;;;14.90;1.00;14.30;98065.00;;;;5072477;28;20602;-69
2022/05/08 09:19:37;;;;;;;0.10;0.10;;;14.90;1.00;14.20;98076.00;;;;5072693;28;20212;-70
2022/05/08 09:22:06;;;;;;;0.10;0.10;;;14.90;1.00;14.20;98071.00;;;;5072762;28;20291;-70
2022/05/08 09:24:36;;;;;;;0.00;0.00;;;14.90;1.00;14.30;98070.00;;;;5040186;28;20219;-69
2022/05/08 09:27:14;;;;;;;0.00;0.00;;;15.00;1.00;14.40;98061.00;;;;5058029;28;20288;-70
2022/05/08 09:29:44;;;;;;;0.00;0.00;;;15.10;1.00;14.40;98082.00;;;;5051714;28;20209;-70
2022/05/08 09:32:37;;;;;;;0.00;0.00;;;15.10;1.00;14.30;98056.00;;;;5040623;28;20217;-70
2022/05/08 09:35:06;;;;;;;0.00;0.00;;;15.10;1.00;14.40;98081.00;;;;5055195;28;20226;-69
2022/05/08 09:37:35;;;;;;;0.10;0.10;;;15.10;1.00;14.50;98077.00;;;;5051557;28;20210;-70
2022/05/08 09:40:17;;;;;;;0.08;0.08;;;15.20;1.00;14.60;98073.00;;;;5052095;28;20281;-70
2022/05/08 09:42:47;;;;;;;0.00;0.00;;;15.30;1.00;14.60;98070.00;;;;5063463;28;20548;-69
2022/05/08 09:45:15;;;;;;;0.10;0.10;;;15.30;1.00;14.70;98067.00;;;;5072149;28;20217;-70
2022/05/08 09:47:45;;;;;;;0.10;0.10;;;15.40;1.00;14.80;98077.00;;;;5071710;28;20201;-69
2022/05/08 09:50:14;;;;;;;0.10;0.10;;;15.40;1.00;14.80;98071.00;;;;5072080;28;20283;-70
2022/05/08 09:52:43;;;;;;;0.00;0.00;;;15.50;1.00;14.90;98078.00;;;;5069220;28;20206;-70
2022/05/08 09:55:14;;;;;;;0.00;0.00;;;15.50;1.00;15.00;98077.00;;;;5054673;28;20244;-70
2022/05/08 09:57:43;;;;;;;0.00;0.00;;;15.60;1.00;15.10;98084.00;;;;5071572;28;20247;-70
2022/05/08 10:00:16;;;;;;;0.00;0.00;;;15.70;1.00;15.00;98070.00;;;;5051568;28;20263;-70
2022/05/08 10:02:46;;;;;;;0.00;0.00;;;15.70;1.00;15.00;98072.00;;;;5054489;28;21027;-70
2022/05/08 10:05:16;;;;;;;0.10;0.10;;;15.70;99.90;15.00;98057.00;;;;5070707;28;20210;-70
2022/05/08 10:07:45;;;;;;;0.08;0.08;;;15.70;99.90;15.10;98080.00;;;;5051557;28;20606;-69
2022/05/08 10:15:48;;;;;;;0.10;0.10;;;15.70;99.90;14.90;98069.00;;;;5073005;28;20219;-70
2022/05/08 10:18:25;;;;;;;0.00;0.00;;;15.60;99.90;15.00;98029.00;;;;5054813;28;20232;-70
2022/05/08 10:21:07;;;;;;;0.00;0.00;;;15.70;99.90;15.00;98073.00;;;;5052909;28;20201;-70
2022/05/08 10:23:38;;;;;;;0.10;0.10;;;15.70;99.90;15.00;98076.00;;;;5062437;28;20211;-70
2022/05/08 10:26:18;;;;;;;0.00;0.00;;;15.70;99.90;15.00;98050.00;;;;5073044;28;20217;-70
2022/05/08 10:29:12;;;;;;;0.00;0.00;;;15.70;99.90;15.10;98086.00;;;;5072700;28;20968;-70
2022/05/08 10:31:50;;;;;;;0.00;0.00;;;15.80;99.90;15.20;98086.00;;;;5064721;28;20251;-70
2022/05/08 10:34:32;;;;;;;0.00;0.00;;;15.80;99.90;15.10;98082.00;;;;5059044;28;20297;-70
2022/05/08 10:37:28;;;;;;;0.10;0.10;;;15.80;99.90;15.10;98077.00;;;;5053945;28;20205;-70
2022/05/08 10:39:57;;;;;;;0.00;0.00;;;15.80;99.90;15.00;98083.00;;;;5054530;28;20206;-70
2022/05/08 10:42:45;;;;;;;0.10;0.10;;;15.80;99.90;15.10;98083.00;;;;5062133;28;20669;-70
2022/05/08 10:45:43;;;;;;;0.00;0.00;;;15.80;99.90;15.10;98073.00;;;;5035757;28;20218;-70
2022/05/08 10:48:15;;;;;;;0.10;0.10;;;15.80;99.90;15.10;98085.00;;;;5035789;28;20274;-70
2022/05/08 10:50:47;;;;;;;0.00;0.00;;;15.80;99.90;15.20;98078.00;;;;5035324;28;20673;-70
2022/05/08 10:53:23;;;;;;;0.10;0.10;;;15.90;99.90;15.20;98078.00;;;;5050553;28;20220;-70
2022/05/08 10:55:53;;;;;;;0.10;0.10;;;15.90;99.90;15.20;98077.00;;;;5066657;28;20206;-70
2022/05/08 10:58:24;;;;;;;0.05;0.05;;;15.90;90.00;15.30;98075.00;;;;5060497;28;20198;-70
2022/05/08 11:00:59;;;;;;;0.00;0.00;;;15.90;99.90;15.40;98079.00;;;;5075262;28;20193;-70
2022/05/08 11:03:29;;;;;;;0.00;0.00;;;16.00;99.90;15.40;98073.00;;;;5089321;28;20202;-71
2022/05/08 11:05:58;;;;;;;0.00;0.00;;;16.00;1.00;15.50;98061.00;;;;5068795;28;20728;-70
2022/05/08 11:08:29;;;;;;;0.00;0.00;;;16.20;1.00;15.50;98057.00;;;;5075362;28;20244;-70
2022/05/08 11:11:02;;;;;;;0.00;0.00;;;16.10;1.00;15.40;98070.00;;;;5075243;28;20190;-70
2022/05/08 11:13:47;;;;;;;0.10;0.10;;;16.20;1.00;15.50;98057.00;;;;5066168;28;20194;-70
2022/05/08 11:16:36;;;;;;;0.10;0.10;;;16.20;1.00;15.50;98057.00;;;;5066017;28;20649;-70
2022/05/08 11:19:07;;;;;;;0.00;0.00;;;16.20;1.00;15.50;98059.00;;;;5075248;28;20669;-70
2022/05/08 11:21:36;;;;;;;0.00;0.00;;;16.20;1.00;15.70;98050.00;;;;5075168;28;20210;-70
2022/05/08 11:24:04;;;;;;;0.00;0.00;;;16.30;1.00;15.70;98013.00;;;;5072655;28;20190;-70
2022/05/08 11:26:35;;;;;;;0.00;0.00;;;16.30;1.00;15.80;98061.00;;;;5066020;28;20296;-70
2022/05/08 11:29:04;;;;;;;0.00;0.00;;;16.40;1.00;15.80;98062.00;;;;5055362;28;20194;-70
2022/05/08 11:31:35;;;;;;;0.00;0.00;;;16.40;1.00;16.00;98059.00;;;;5054397;28;20205;-70
2022/05/08 11:36:51;;;;;;;0.10;0.10;;;16.60;1.00;16.00;98056.00;;;;5058525;28;20194;-70
2022/05/08 11:39:21;;;;;;;0.00;0.00;;;16.60;1.00;16.20;98054.00;;;;5054462;28;20265;-70
2022/05/08 11:41:51;;;;;;;0.03;0.03;;;16.70;1.00;16.20;98053.00;;;;5073362;28;20222;-72
2022/05/08 11:44:23;;;;;;;0.00;0.00;;;16.80;1.00;16.40;98055.00;;;;5072618;28;20197;-70
2022/05/08 11:46:55;;;;;;;0.10;0.10;;;16.90;1.00;16.60;98063.00;;;;5073983;28;20284;-70